sensor_id;sensor_type;location;lat;lon;timestamp;temperature;humidity
15426;DHT22;7812;50.072;7.036;2023-05-07T00:00:42;12.50;99.90
15426;DHT22;7812;50.072;7.036;2023-05-07T00:03:08;12.60;99.90
15426;DHT22;7812;50.072;7.036;2023-05-07T00:05:33;12.60;99.90
15426;DHT22;7812;50.072;7.036;2023-05-07T00:07:59;12.60;99.90
15426;DHT22;7812;50.072;7.036;2023-05-07T00:10:25;12.60;99.90
15426;DHT22;7812;50.072;7.036;2023-05-07T00:12:51;12.60;99.90
15426;DHT22;7812;50.072;7.036;2023-05-07T00:15:17;12.60;99.90
15426;DHT22;7812;50.072;7.036;2023-05-07T00:17:42;12.60;99.90
15426;DHT22;7812;50.072;7.036;2023-05-07T00:20:08;12.60;99.90
15426;DHT22;7812;50.072;7.036;2023-05-07T00:22:34;12.60;99.90
15426;DHT22;7812;50.072;7.036;2023-05-07T00:25:00;12.60;99.90
15426;DHT22;7812;50.072;7.036;2023-05-07T00:27:25;12.60;99.90
15426;DHT22;7812;50.072;7.036;2023-05-07T00:29:51;12.60;99.90
15426;DHT22;7812;50.072;7.036;2023-05-07T00:32:17;12.70;99.90
15426;DHT22;7812;50.072;7.036;2023-05-07T00:34:48;12.70;99.90
15426;DHT22;7812;50.072;7.036;2023-05-07T00:37:14;12.70;99.90
15426;DHT22;7812;50.072;7.036;2023-05-07T00:39:40;12.70;99.90
15426;DHT22;7812;50.072;7.036;2023-05-07T00:42:05;12.70;99.90
15426;DHT22;7812;50.072;7.036;2023-05-07T00:44:31;12.70;99.90
15426;DHT22;7812;50.072;7.036;2023-05-07T00:46:57;12.70;99.90
15426;DHT22;7812;50.072;7.036;2023-05-07T00:49:31;12.60;99.90
15426;DHT22;7812;50.072;7.036;2023-05-07T00:51:58;12.60;99.90
15426;DHT22;7812;50.072;7.036;2023-05-07T00:54:25;12.50;99.90
15426;DHT22;7812;50.072;7.036;2023-05-07T00:56:54;12.50;99.90
15426;DHT22;7812;50.072;7.036;2023-05-07T00:59:20;12.40;99.90
15426;DHT22;7812;50.072;7.036;2023-05-07T01:01:45;12.30;99.90
15426;DHT22;7812;50.072;7.036;2023-05-07T01:04:11;12.10;99.90
15426;DHT22;7812;50.072;7.036;2023-05-07T01:06:37;12.00;99.90
15426;DHT22;7812;50.072;7.036;2023-05-07T01:09:03;11.90;99.90
15426;DHT22;7812;50.072;7.036;2023-05-07T01:11:30;12.00;99.90
15426;DHT22;7812;50.072;7.036;2023-05-07T01:13:56;12.00;99.90
15426;DHT22;7812;50.072;7.036;2023-05-07T01:16:24;12.00;99.90
15426;DHT22;7812;50.072;7.036;2023-05-07T01:18:50;11.90;99.90
15426;DHT22;7812;50.072;7.036;2023-05-07T01:21:17;11.80;99.90
15426;DHT22;7812;50.072;7.036;2023-05-07T01:23:44;11.90;99.90
15426;DHT22;7812;50.072;7.036;2023-05-07T01:26:10;11.80;99.90
15426;DHT22;7812;50.072;7.036;2023-05-07T01:28:36;11.70;99.90
15426;DHT22;7812;50.072;7.036;2023-05-07T01:31:03;11.70;99.90
15426;DHT22;7812;50.072;7.036;2023-05-07T01:33:32;11.70;99.90
15426;DHT22;7812;50.072;7.036;2023-05-07T01:35:59;11.70;99.90
15426;DHT22;7812;50.072;7.036;2023-05-07T01:38:29;11.70;99.90
15426;DHT22;7812;50.072;7.036;2023-05-07T01:40:56;11.70;99.90
15426;DHT22;7812;50.072;7.036;2023-05-07T01:43:21;11.70;99.90
15426;DHT22;7812;50.072;7.036;2023-05-07T01:45:48;11.80;99.90
15426;DHT22;7812;50.072;7.036;2023-05-07T01:48:15;11.70;99.90
15426;DHT22;7812;50.072;7.036;2023-05-07T01:50:42;11.70;99.90
15426;DHT22;7812;50.072;7.036;2023-05-07T01:53:08;11.70;99.90
15426;DHT22;7812;50.072;7.036;2023-05-07T01:55:34;11.70;99.90
15426;DHT22;7812;50.072;7.036;2023-05-07T01:57:59;11.80;99.90
15426;DHT22;7812;50.072;7.036;2023-05-07T02:00:25;11.80;99.90
15426;DHT22;7812;50.072;7.036;2023-05-07T02:02:51;11.80;99.90
15426;DHT22;7812;50.072;7.036;2023-05-07T02:05:18;11.80;99.90
15426;DHT22;7812;50.072;7.036;2023-05-07T02:07:43;11.80;99.90
15426;DHT22;7812;50.072;7.036;2023-05-07T02:10:09;11.80;99.90
15426;DHT22;7812;50.072;7.036;2023-05-07T02:12:35;11.80;99.90
15426;DHT22;7812;50.072;7.036;2023-05-07T02:15:01;11.90;99.90
15426;DHT22;7812;50.072;7.036;2023-05-07T02:17:27;11.90;99.90
15426;DHT22;7812;50.072;7.036;2023-05-07T02:19:53;11.90;99.90
15426;DHT22;7812;50.072;7.036;2023-05-07T02:22:18;11.90;99.90
15426;DHT22;7812;50.072;7.036;2023-05-07T02:24:44;11.90;99.90
15426;DHT22;7812;50.072;7.036;2023-05-07T02:27:10;11.90;99.90
15426;DHT22;7812;50.072;7.036;2023-05-07T02:29:35;11.90;99.90
15426;DHT22;7812;50.072;7.036;2023-05-07T02:32:01;11.90;99.90
15426;DHT22;7812;50.072;7.036;2023-05-07T02:34:27;11.90;99.90
15426;DHT22;7812;50.072;7.036;2023-05-07T02:36:52;11.90;99.90
15426;DHT22;7812;50.072;7.036;2023-05-07T02:39:18;11.80;99.90
15426;DHT22;7812;50.072;7.036;2023-05-07T02:41:44;11.80;99.90
15426;DHT22;7812;50.072;7.036;2023-05-07T02:44:09;11.70;99.90
15426;DHT22;7812;50.072;7.036;2023-05-07T02:46:35;11.60;99.90
15426;DHT22;7812;50.072;7.036;2023-05-07T02:49:00;11.70;99.90
15426;DHT22;7812;50.072;7.036;2023-05-07T02:51:26;11.80;99.90
15426;DHT22;7812;50.072;7.036;2023-05-07T02:53:52;11.80;99.90
15426;DHT22;7812;50.072;7.036;2023-05-07T02:56:18;11.80;99.90
15426;DHT22;7812;50.072;7.036;2023-05-07T02:58:44;11.80;99.90
15426;DHT22;7812;50.072;7.036;2023-05-07T03:01:09;11.80;99.90
15426;DHT22;7812;50.072;7.036;2023-05-07T03:03:35;11.80;99.90
15426;DHT22;7812;50.072;7.036;2023-05-07T03:06:01;11.80;99.90
15426;DHT22;7812;50.072;7.036;2023-05-07T03:08:27;11.70;99.90
15426;DHT22;7812;50.072;7.036;2023-05-07T03:10:53;11.70;99.90
15426;DHT22;7812;50.072;7.036;2023-05-07T03:13:18;11.60;99.90
15426;DHT22;7812;50.072;7.036;2023-05-07T03:15:44;11.60;99.90
15426;DHT22;7812;50.072;7.036;2023-05-07T03:18:11;11.50;99.90
15426;DHT22;7812;50.072;7.036;2023-05-07T03:20:36;11.50;99.90
15426;DHT22;7812;50.072;7.036;2023-05-07T03:23:04;11.50;99.90
15426;DHT22;7812;50.072;7.036;2023-05-07T03:25:29;11.50;99.90
15426;DHT22;7812;50.072;7.036;2023-05-07T03:27:56;11.50;99.90
15426;DHT22;7812;50.072;7.036;2023-05-07T03:30:22;11.50;99.90
15426;DHT22;7812;50.072;7.036;2023-05-07T03:32:47;11.50;99.90
15426;DHT22;7812;50.072;7.036;2023-05-07T03:35:13;11.50;99.90
15426;DHT22;7812;50.072;7.036;2023-05-07T03:37:39;11.50;99.90
15426;DHT22;7812;50.072;7.036;2023-05-07T03:40:06;11.50;99.90
15426;DHT22;7812;50.072;7.036;2023-05-07T03:42:32;11.50;99.90
15426;DHT22;7812;50.072;7.036;2023-05-07T03:44:57;11.50;99.90
15426;DHT22;7812;50.072;7.036;2023-05-07T03:47:23;11.50;99.90
15426;DHT22;7812;50.072;7.036;2023-05-07T03:49:48;11.40;99.90
15426;DHT22;7812;50.072;7.036;2023-05-07T03:52:15;11.30;99.90
15426;DHT22;7812;50.072;7.036;2023-05-07T03:54:41;11.30;99.90
15426;DHT22;7812;50.072;7.036;2023-05-07T03:57:07;11.30;99.90
15426;DHT22;7812;50.072;7.036;2023-05-07T03:59:32;11.30;99.90
15426;DHT22;7812;50.072;7.036;2023-05-07T04:01:58;11.40;99.90
15426;DHT22;7812;50.072;7.036;2023-05-07T04:04:24;11.40;99.90
15426;DHT22;7812;50.072;7.036;2023-05-07T04:06:49;11.40;99.90
15426;DHT22;7812;50.072;7.036;2023-05-07T04:09:15;11.40;99.90
15426;DHT22;7812;50.072;7.036;2023-05-07T04:11:41;11.40;99.90
15426;DHT22;7812;50.072;7.036;2023-05-07T04:14:06;11.40;99.90
15426;DHT22;7812;50.072;7.036;2023-05-07T04:16:32;11.50;99.90
15426;DHT22;7812;50.072;7.036;2023-05-07T04:18:58;11.60;99.90
15426;DHT22;7812;50.072;7.036;2023-05-07T04:21:23;11.50;99.90
15426;DHT22;7812;50.072;7.036;2023-05-07T04:23:49;11.50;99.90
15426;DHT22;7812;50.072;7.036;2023-05-07T04:26:15;11.50;99.90
15426;DHT22;7812;50.072;7.036;2023-05-07T04:28:41;11.50;99.90
15426;DHT22;7812;50.072;7.036;2023-05-07T04:31:07;11.60;99.90
15426;DHT22;7812;50.072;7.036;2023-05-07T04:33:33;11.70;99.90
15426;DHT22;7812;50.072;7.036;2023-05-07T04:36:03;11.80;99.90
15426;DHT22;7812;50.072;7.036;2023-05-07T04:38:32;11.70;99.90
15426;DHT22;7812;50.072;7.036;2023-05-07T04:41:09;11.60;99.90
15426;DHT22;7812;50.072;7.036;2023-05-07T04:43:35;11.70;99.90
15426;DHT22;7812;50.072;7.036;2023-05-07T04:46:00;11.80;99.90
15426;DHT22;7812;50.072;7.036;2023-05-07T04:48:26;11.90;99.90
15426;DHT22;7812;50.072;7.036;2023-05-07T04:50:52;12.00;99.90
15426;DHT22;7812;50.072;7.036;2023-05-07T04:53:18;12.10;99.90
15426;DHT22;7812;50.072;7.036;2023-05-07T04:55:45;12.10;99.90
15426;DHT22;7812;50.072;7.036;2023-05-07T04:58:11;12.10;99.90
15426;DHT22;7812;50.072;7.036;2023-05-07T05:00:37;12.20;99.90
15426;DHT22;7812;50.072;7.036;2023-05-07T05:03:04;12.30;99.90
15426;DHT22;7812;50.072;7.036;2023-05-07T05:05:30;12.40;99.90
15426;DHT22;7812;50.072;7.036;2023-05-07T05:07:56;12.40;99.90
15426;DHT22;7812;50.072;7.036;2023-05-07T05:10:22;12.50;99.90
15426;DHT22;7812;50.072;7.036;2023-05-07T05:12:47;12.30;99.90
15426;DHT22;7812;50.072;7.036;2023-05-07T05:15:13;12.30;99.90
15426;DHT22;7812;50.072;7.036;2023-05-07T05:17:39;12.20;99.90
15426;DHT22;7812;50.072;7.036;2023-05-07T05:20:05;12.40;99.90
15426;DHT22;7812;50.072;7.036;2023-05-07T05:22:32;12.60;99.90
15426;DHT22;7812;50.072;7.036;2023-05-07T05:24:58;12.60;99.90
15426;DHT22;7812;50.072;7.036;2023-05-07T05:27:24;12.50;99.90
15426;DHT22;7812;50.072;7.036;2023-05-07T05:29:49;12.60;99.90
15426;DHT22;7812;50.072;7.036;2023-05-07T05:32:15;12.60;99.90
15426;DHT22;7812;50.072;7.036;2023-05-07T05:34:41;12.60;99.90
15426;DHT22;7812;50.072;7.036;2023-05-07T05:37:06;12.70;99.90
15426;DHT22;7812;50.072;7.036;2023-05-07T05:39:32;12.80;99.90
15426;DHT22;7812;50.072;7.036;2023-05-07T05:41:58;13.00;99.90
15426;DHT22;7812;50.072;7.036;2023-05-07T05:44:23;13.20;99.90
15426;DHT22;7812;50.072;7.036;2023-05-07T05:46:49;13.10;99.90
15426;DHT22;7812;50.072;7.036;2023-05-07T05:49:15;13.10;99.90
15426;DHT22;7812;50.072;7.036;2023-05-07T05:51:41;13.40;99.90
15426;DHT22;7812;50.072;7.036;2023-05-07T05:54:07;13.50;99.90
15426;DHT22;7812;50.072;7.036;2023-05-07T05:56:33;13.60;99.90
15426;DHT22;7812;50.072;7.036;2023-05-07T05:58:58;14.00;99.90
15426;DHT22;7812;50.072;7.036;2023-05-07T06:01:24;14.30;99.90
15426;DHT22;7812;50.072;7.036;2023-05-07T06:03:50;14.60;99.90
15426;DHT22;7812;50.072;7.036;2023-05-07T06:06:15;14.80;99.90
15426;DHT22;7812;50.072;7.036;2023-05-07T06:08:41;14.90;99.90
15426;DHT22;7812;50.072;7.036;2023-05-07T06:11:07;15.00;99.90
15426;DHT22;7812;50.072;7.036;2023-05-07T06:13:32;15.00;99.90
15426;DHT22;7812;50.072;7.036;2023-05-07T06:15:58;15.20;99.90
15426;DHT22;7812;50.072;7.036;2023-05-07T06:18:24;15.40;99.90
15426;DHT22;7812;50.072;7.036;2023-05-07T06:20:51;15.30;99.90
15426;DHT22;7812;50.072;7.036;2023-05-07T06:23:17;15.40;99.90
15426;DHT22;7812;50.072;7.036;2023-05-07T06:25:47;15.70;99.90
15426;DHT22;7812;50.072;7.036;2023-05-07T06:28:13;15.90;99.90
15426;DHT22;7812;50.072;7.036;2023-05-07T06:30:39;15.80;99.90
15426;DHT22;7812;50.072;7.036;2023-05-07T06:33:09;16.30;99.90
15426;DHT22;7812;50.072;7.036;2023-05-07T06:35:35;16.90;99.90
15426;DHT22;7812;50.072;7.036;2023-05-07T06:38:01;17.20;99.90
15426;DHT22;7812;50.072;7.036;2023-05-07T06:40:27;17.50;99.90
15426;DHT22;7812;50.072;7.036;2023-05-07T06:42:52;17.50;99.90
15426;DHT22;7812;50.072;7.036;2023-05-07T06:45:19;17.80;99.90
15426;DHT22;7812;50.072;7.036;2023-05-07T06:47:45;18.10;99.90
15426;DHT22;7812;50.072;7.036;2023-05-07T06:50:11;18.30;99.90
15426;DHT22;7812;50.072;7.036;2023-05-07T06:52:36;18.30;99.90
15426;DHT22;7812;50.072;7.036;2023-05-07T06:55:02;18.50;99.90
15426;DHT22;7812;50.072;7.036;2023-05-07T06:57:30;18.90;99.90
15426;DHT22;7812;50.072;7.036;2023-05-07T06:59:56;18.90;99.90
15426;DHT22;7812;50.072;7.036;2023-05-07T07:02:22;19.30;99.90
15426;DHT22;7812;50.072;7.036;2023-05-07T07:04:47;19.30;99.90
15426;DHT22;7812;50.072;7.036;2023-05-07T07:07:13;20.30;99.90
15426;DHT22;7812;50.072;7.036;2023-05-07T07:09:38;21.00;99.90
15426;DHT22;7812;50.072;7.036;2023-05-07T07:12:04;21.20;99.90
15426;DHT22;7812;50.072;7.036;2023-05-07T07:14:30;21.50;99.90
15426;DHT22;7812;50.072;7.036;2023-05-07T07:16:55;21.60;99.90
15426;DHT22;7812;50.072;7.036;2023-05-07T07:19:21;21.40;99.90
15426;DHT22;7812;50.072;7.036;2023-05-07T07:21:47;21.30;99.90
15426;DHT22;7812;50.072;7.036;2023-05-07T07:24:13;20.60;99.90
15426;DHT22;7812;50.072;7.036;2023-05-07T07:26:44;20.10;99.90
15426;DHT22;7812;50.072;7.036;2023-05-07T07:29:10;19.90;99.90
15426;DHT22;7812;50.072;7.036;2023-05-07T07:31:35;20.20;99.90
15426;DHT22;7812;50.072;7.036;2023-05-07T07:34:01;21.10;99.90
15426;DHT22;7812;50.072;7.036;2023-05-07T07:36:27;21.30;99.90
15426;DHT22;7812;50.072;7.036;2023-05-07T07:38:53;21.30;99.90
15426;DHT22;7812;50.072;7.036;2023-05-07T07:41:19;21.60;99.90
15426;DHT22;7812;50.072;7.036;2023-05-07T07:43:45;21.40;99.90
15426;DHT22;7812;50.072;7.036;2023-05-07T07:46:12;21.50;99.90
15426;DHT22;7812;50.072;7.036;2023-05-07T07:48:37;22.40;99.90
15426;DHT22;7812;50.072;7.036;2023-05-07T07:51:03;23.10;99.90
15426;DHT22;7812;50.072;7.036;2023-05-07T07:53:29;24.00;99.90
15426;DHT22;7812;50.072;7.036;2023-05-07T07:55:55;23.50;99.90
15426;DHT22;7812;50.072;7.036;2023-05-07T07:58:22;24.70;99.90
15426;DHT22;7812;50.072;7.036;2023-05-07T08:00:50;25.20;99.90
15426;DHT22;7812;50.072;7.036;2023-05-07T08:03:16;25.30;99.90
15426;DHT22;7812;50.072;7.036;2023-05-07T08:05:42;24.60;99.90
15426;DHT22;7812;50.072;7.036;2023-05-07T08:08:08;25.30;99.90
15426;DHT22;7812;50.072;7.036;2023-05-07T08:10:34;26.40;99.90
15426;DHT22;7812;50.072;7.036;2023-05-07T08:13:03;26.70;99.90
15426;DHT22;7812;50.072;7.036;2023-05-07T08:15:29;26.50;99.90
15426;DHT22;7812;50.072;7.036;2023-05-07T08:17:55;27.40;99.90
15426;DHT22;7812;50.072;7.036;2023-05-07T08:20:23;27.60;99.90
15426;DHT22;7812;50.072;7.036;2023-05-07T08:22:48;26.70;99.90
15426;DHT22;7812;50.072;7.036;2023-05-07T08:25:14;26.30;99.90
15426;DHT22;7812;50.072;7.036;2023-05-07T08:27:40;26.80;99.90
15426;DHT22;7812;50.072;7.036;2023-05-07T08:30:06;26.90;99.90
15426;DHT22;7812;50.072;7.036;2023-05-07T08:32:32;26.90;99.90
15426;DHT22;7812;50.072;7.036;2023-05-07T08:34:57;26.90;99.90
15426;DHT22;7812;50.072;7.036;2023-05-07T08:37:23;26.40;99.90
15426;DHT22;7812;50.072;7.036;2023-05-07T08:39:49;26.00;99.90
15426;DHT22;7812;50.072;7.036;2023-05-07T08:42:16;25.50;99.90
15426;DHT22;7812;50.072;7.036;2023-05-07T08:44:45;24.70;99.90
15426;DHT22;7812;50.072;7.036;2023-05-07T08:47:14;24.80;99.90
15426;DHT22;7812;50.072;7.036;2023-05-07T08:49:39;24.40;99.90
15426;DHT22;7812;50.072;7.036;2023-05-07T08:52:05;23.90;99.90
15426;DHT22;7812;50.072;7.036;2023-05-07T08:54:31;24.30;99.90
15426;DHT22;7812;50.072;7.036;2023-05-07T08:56:57;24.20;99.90
15426;DHT22;7812;50.072;7.036;2023-05-07T08:59:23;24.80;99.90
15426;DHT22;7812;50.072;7.036;2023-05-07T09:01:49;24.30;99.90
15426;DHT22;7812;50.072;7.036;2023-05-07T09:04:14;23.70;99.90
15426;DHT22;7812;50.072;7.036;2023-05-07T09:06:40;23.30;99.90
15426;DHT22;7812;50.072;7.036;2023-05-07T09:09:07;23.70;99.90
15426;DHT22;7812;50.072;7.036;2023-05-07T09:11:33;23.80;99.90
15426;DHT22;7812;50.072;7.036;2023-05-07T09:13:59;23.60;99.90
15426;DHT22;7812;50.072;7.036;2023-05-07T09:16:29;24.20;99.90
15426;DHT22;7812;50.072;7.036;2023-05-07T09:18:58;23.70;99.90
15426;DHT22;7812;50.072;7.036;2023-05-07T09:21:26;24.10;99.90
15426;DHT22;7812;50.072;7.036;2023-05-07T09:23:53;23.80;99.90
15426;DHT22;7812;50.072;7.036;2023-05-07T09:26:21;23.90;99.90
15426;DHT22;7812;50.072;7.036;2023-05-07T09:28:47;24.20;99.90
15426;DHT22;7812;50.072;7.036;2023-05-07T09:31:13;23.60;99.90
15426;DHT22;7812;50.072;7.036;2023-05-07T09:33:39;23.80;99.90
15426;DHT22;7812;50.072;7.036;2023-05-07T09:36:06;24.00;99.90
15426;DHT22;7812;50.072;7.036;2023-05-07T09:38:33;23.90;99.90
15426;DHT22;7812;50.072;7.036;2023-05-07T09:41:06;24.50;99.90
15426;DHT22;7812;50.072;7.036;2023-05-07T09:43:33;24.70;99.90
15426;DHT22;7812;50.072;7.036;2023-05-07T09:46:04;24.60;99.90
15426;DHT22;7812;50.072;7.036;2023-05-07T09:48:33;24.80;99.90
15426;DHT22;7812;50.072;7.036;2023-05-07T09:51:02;24.70;99.90
15426;DHT22;7812;50.072;7.036;2023-05-07T09:53:31;24.50;99.90
15426;DHT22;7812;50.072;7.036;2023-05-07T09:55:59;24.70;99.90
15426;DHT22;7812;50.072;7.036;2023-05-07T09:58:26;24.40;99.90
15426;DHT22;7812;50.072;7.036;2023-05-07T10:00:52;23.80;99.90
15426;DHT22;7812;50.072;7.036;2023-05-07T10:03:19;23.40;99.90
15426;DHT22;7812;50.072;7.036;2023-05-07T10:05:46;23.20;99.90
15426;DHT22;7812;50.072;7.036;2023-05-07T10:08:13;24.00;99.90
15426;DHT22;7812;50.072;7.036;2023-05-07T10:10:39;24.80;99.90
15426;DHT22;7812;50.072;7.036;2023-05-07T10:13:06;25.30;99.90
15426;DHT22;7812;50.072;7.036;2023-05-07T10:15:36;25.60;99.90
15426;DHT22;7812;50.072;7.036;2023-05-07T10:18:03;25.60;99.90
15426;DHT22;7812;50.072;7.036;2023-05-07T10:20:30;25.80;99.90
15426;DHT22;7812;50.072;7.036;2023-05-07T10:22:57;26.30;99.90
15426;DHT22;7812;50.072;7.036;2023-05-07T10:25:30;26.80;99.90
15426;DHT22;7812;50.072;7.036;2023-05-07T10:27:58;26.50;99.90
15426;DHT22;7812;50.072;7.036;2023-05-07T10:33:17;26.80;99.90
15426;DHT22;7812;50.072;7.036;2023-05-07T10:35:46;26.30;99.90
15426;DHT22;7812;50.072;7.036;2023-05-07T10:38:12;26.70;99.90
15426;DHT22;7812;50.072;7.036;2023-05-07T10:40:38;27.30;99.90
15426;DHT22;7812;50.072;7.036;2023-05-07T10:43:05;26.30;99.90
15426;DHT22;7812;50.072;7.036;2023-05-07T10:45:32;26.80;99.90
15426;DHT22;7812;50.072;7.036;2023-05-07T10:48:15;26.90;99.90
15426;DHT22;7812;50.072;7.036;2023-05-07T10:50:45;27.30;99.90
15426;DHT22;7812;50.072;7.036;2023-05-07T10:58:33;29.60;99.90
15426;DHT22;7812;50.072;7.036;2023-05-07T11:01:02;28.40;99.90
15426;DHT22;7812;50.072;7.036;2023-05-07T11:03:29;28.60;99.90
15426;DHT22;7812;50.072;7.036;2023-05-07T11:06:14;28.50;99.90
15426;DHT22;7812;50.072;7.036;2023-05-07T11:11:18;30.40;99.90
15426;DHT22;7812;50.072;7.036;2023-05-07T11:13:46;31.30;99.90
15426;DHT22;7812;50.072;7.036;2023-05-07T11:16:23;33.50;99.90
15426;DHT22;7812;50.072;7.036;2023-05-07T11:18:54;34.50;99.90
15426;DHT22;7812;50.072;7.036;2023-05-07T11:21:36;35.20;99.90
15426;DHT22;7812;50.072;7.036;2023-05-07T11:24:03;34.60;99.40
15426;DHT22;7812;50.072;7.036;2023-05-07T11:26:49;32.10;96.20
15426;DHT22;7812;50.072;7.036;2023-05-07T11:29:20;31.20;98.00
15426;DHT22;7812;50.072;7.036;2023-05-07T11:31:53;31.70;98.10
15426;DHT22;7812;50.072;7.036;2023-05-07T11:34:23;30.60;99.90
15426;DHT22;7812;50.072;7.036;2023-05-07T11:36:50;31.50;97.90
15426;DHT22;7812;50.072;7.036;2023-05-07T11:39:30;28.90;97.90
15426;DHT22;7812;50.072;7.036;2023-05-07T11:42:01;27.40;99.90
15426;DHT22;7812;50.072;7.036;2023-05-07T11:47:07;28.60;99.90
15426;DHT22;7812;50.072;7.036;2023-05-07T11:49:34;28.80;99.90
15426;DHT22;7812;50.072;7.036;2023-05-07T11:51:59;29.30;99.00
15426;DHT22;7812;50.072;7.036;2023-05-07T11:54:25;28.60;99.30
15426;DHT22;7812;50.072;7.036;2023-05-07T11:56:51;27.60;99.90
15426;DHT22;7812;50.072;7.036;2023-05-07T11:59:18;26.90;99.90
15426;DHT22;7812;50.072;7.036;2023-05-07T12:01:46;26.70;99.90
15426;DHT22;7812;50.072;7.036;2023-05-07T12:04:12;26.80;99.90
15426;DHT22;7812;50.072;7.036;2023-05-07T12:06:38;26.90;99.90
15426;DHT22;7812;50.072;7.036;2023-05-07T12:09:04;27.80;99.90
15426;DHT22;7812;50.072;7.036;2023-05-07T12:11:32;29.10;99.90
15426;DHT22;7812;50.072;7.036;2023-05-07T12:13:58;30.50;98.20
15426;DHT22;7812;50.072;7.036;2023-05-07T12:16:23;31.10;98.50
15426;DHT22;7812;50.072;7.036;2023-05-07T12:18:50;32.30;97.90
15426;DHT22;7812;50.072;7.036;2023-05-07T12:21:18;33.10;95.70
15426;DHT22;7812;50.072;7.036;2023-05-07T12:23:44;31.50;95.20
15426;DHT22;7812;50.072;7.036;2023-05-07T12:26:10;29.50;95.90
15426;DHT22;7812;50.072;7.036;2023-05-07T12:28:37;28.00;96.90
15426;DHT22;7812;50.072;7.036;2023-05-07T12:31:04;27.10;98.70
15426;DHT22;7812;50.072;7.036;2023-05-07T12:33:30;27.30;99.90
15426;DHT22;7812;50.072;7.036;2023-05-07T12:35:58;27.90;98.80
15426;DHT22;7812;50.072;7.036;2023-05-07T12:38:23;28.20;99.30
15426;DHT22;7812;50.072;7.036;2023-05-07T12:40:53;27.40;99.10
15426;DHT22;7812;50.072;7.036;2023-05-07T12:45:49;27.00;99.90
15426;DHT22;7812;50.072;7.036;2023-05-07T12:48:15;27.80;99.90
15426;DHT22;7812;50.072;7.036;2023-05-07T12:50:42;27.90;99.90
15426;DHT22;7812;50.072;7.036;2023-05-07T12:53:09;28.20;99.90
15426;DHT22;7812;50.072;7.036;2023-05-07T12:55:47;28.90;99.90
15426;DHT22;7812;50.072;7.036;2023-05-07T12:58:17;28.20;99.90
15426;DHT22;7812;50.072;7.036;2023-05-07T13:00:43;28.10;99.90
15426;DHT22;7812;50.072;7.036;2023-05-07T13:03:09;28.20;99.90
15426;DHT22;7812;50.072;7.036;2023-05-07T13:05:35;26.90;99.90
15426;DHT22;7812;50.072;7.036;2023-05-07T13:08:01;25.80;99.90
15426;DHT22;7812;50.072;7.036;2023-05-07T13:10:27;25.70;99.90
15426;DHT22;7812;50.072;7.036;2023-05-07T13:12:53;25.30;99.90
15426;DHT22;7812;50.072;7.036;2023-05-07T13:15:19;25.50;99.90
15426;DHT22;7812;50.072;7.036;2023-05-07T13:17:45;25.60;99.90
15426;DHT22;7812;50.072;7.036;2023-05-07T13:20:11;25.50;99.90
15426;DHT22;7812;50.072;7.036;2023-05-07T13:22:39;25.30;99.90
15426;DHT22;7812;50.072;7.036;2023-05-07T13:25:05;25.80;99.70
15426;DHT22;7812;50.072;7.036;2023-05-07T13:27:31;25.80;99.90
15426;DHT22;7812;50.072;7.036;2023-05-07T13:29:57;26.20;99.90
15426;DHT22;7812;50.072;7.036;2023-05-07T13:32:23;26.10;99.90
15426;DHT22;7812;50.072;7.036;2023-05-07T13:34:48;25.80;99.90
15426;DHT22;7812;50.072;7.036;2023-05-07T13:37:14;26.10;99.90
15426;DHT22;7812;50.072;7.036;2023-05-07T13:39:40;26.80;99.90
15426;DHT22;7812;50.072;7.036;2023-05-07T13:42:06;26.00;99.90
15426;DHT22;7812;50.072;7.036;2023-05-07T13:44:32;26.30;99.90
15426;DHT22;7812;50.072;7.036;2023-05-07T13:46:58;24.90;99.70
15426;DHT22;7812;50.072;7.036;2023-05-07T13:49:23;24.70;99.90
15426;DHT22;7812;50.072;7.036;2023-05-07T13:51:49;25.10;99.90
15426;DHT22;7812;50.072;7.036;2023-05-07T13:54:15;25.30;99.90
15426;DHT22;7812;50.072;7.036;2023-05-07T13:56:41;25.00;99.90
15426;DHT22;7812;50.072;7.036;2023-05-07T13:59:07;25.30;99.90
15426;DHT22;7812;50.072;7.036;2023-05-07T14:01:33;25.70;97.80
15426;DHT22;7812;50.072;7.036;2023-05-07T14:03:58;25.50;97.40
15426;DHT22;7812;50.072;7.036;2023-05-07T14:06:25;25.40;99.50
15426;DHT22;7812;50.072;7.036;2023-05-07T14:08:50;25.20;99.50
15426;DHT22;7812;50.072;7.036;2023-05-07T14:11:16;25.40;99.80
15426;DHT22;7812;50.072;7.036;2023-05-07T14:13:42;25.80;98.40
15426;DHT22;7812;50.072;7.036;2023-05-07T14:16:08;25.20;98.60
15426;DHT22;7812;50.072;7.036;2023-05-07T14:18:33;25.30;99.00
15426;DHT22;7812;50.072;7.036;2023-05-07T14:21:00;25.70;99.00
15426;DHT22;7812;50.072;7.036;2023-05-07T14:23:26;26.20;98.60
15426;DHT22;7812;50.072;7.036;2023-05-07T14:25:54;25.70;98.40
15426;DHT22;7812;50.072;7.036;2023-05-07T14:28:23;25.70;99.30
15426;DHT22;7812;50.072;7.036;2023-05-07T14:30:49;26.00;99.20
15426;DHT22;7812;50.072;7.036;2023-05-07T14:33:15;26.20;98.20
15426;DHT22;7812;50.072;7.036;2023-05-07T14:35:41;26.10;98.10
15426;DHT22;7812;50.072;7.036;2023-05-07T14:38:10;25.90;98.40
15426;DHT22;7812;50.072;7.036;2023-05-07T14:40:36;25.80;98.50
15426;DHT22;7812;50.072;7.036;2023-05-07T14:43:01;25.80;99.10
15426;DHT22;7812;50.072;7.036;2023-05-07T14:45:27;25.90;98.70
15426;DHT22;7812;50.072;7.036;2023-05-07T14:47:53;25.80;99.40
15426;DHT22;7812;50.072;7.036;2023-05-07T14:50:18;25.10;99.90
15426;DHT22;7812;50.072;7.036;2023-05-07T14:52:44;24.80;99.90
15426;DHT22;7812;50.072;7.036;2023-05-07T14:55:10;24.80;99.90
15426;DHT22;7812;50.072;7.036;2023-05-07T14:57:35;25.00;99.90
15426;DHT22;7812;50.072;7.036;2023-05-07T15:00:03;24.70;99.90
15426;DHT22;7812;50.072;7.036;2023-05-07T15:02:30;24.30;99.90
15426;DHT22;7812;50.072;7.036;2023-05-07T15:04:55;24.40;99.90
15426;DHT22;7812;50.072;7.036;2023-05-07T15:07:21;24.30;99.90
15426;DHT22;7812;50.072;7.036;2023-05-07T15:09:49;24.20;99.90
15426;DHT22;7812;50.072;7.036;2023-05-07T15:12:16;24.10;99.90
15426;DHT22;7812;50.072;7.036;2023-05-07T15:14:42;23.80;99.90
15426;DHT22;7812;50.072;7.036;2023-05-07T15:17:07;23.50;99.90
15426;DHT22;7812;50.072;7.036;2023-05-07T15:19:33;23.50;99.90
15426;DHT22;7812;50.072;7.036;2023-05-07T15:21:59;23.00;99.90
15426;DHT22;7812;50.072;7.036;2023-05-07T15:24:29;21.90;99.90
15426;DHT22;7812;50.072;7.036;2023-05-07T15:26:55;21.60;99.90
15426;DHT22;7812;50.072;7.036;2023-05-07T15:29:20;21.40;99.90
15426;DHT22;7812;50.072;7.036;2023-05-07T15:31:46;21.20;99.90
15426;DHT22;7812;50.072;7.036;2023-05-07T15:34:12;20.90;99.90
15426;DHT22;7812;50.072;7.036;2023-05-07T15:36:40;20.50;99.90
15426;DHT22;7812;50.072;7.036;2023-05-07T15:39:06;20.30;99.90
15426;DHT22;7812;50.072;7.036;2023-05-07T15:41:31;20.20;99.90
15426;DHT22;7812;50.072;7.036;2023-05-07T15:44:02;20.10;99.90
15426;DHT22;7812;50.072;7.036;2023-05-07T15:46:28;20.10;99.90
15426;DHT22;7812;50.072;7.036;2023-05-07T15:48:54;20.00;99.90
15426;DHT22;7812;50.072;7.036;2023-05-07T15:51:21;20.00;99.90
15426;DHT22;7812;50.072;7.036;2023-05-07T15:53:47;20.00;99.90
15426;DHT22;7812;50.072;7.036;2023-05-07T15:56:13;20.10;99.90